sensor_id;sensor_type;location;lat;lon;timestamp;P1;durP1;ratioP1;P2;durP2;ratioP2
62861;SDS011;48953;53.110;5.592;2023-02-28T00:02:25;8.52;;;2.30;;
62861;SDS011;48953;53.110;5.592;2023-02-28T00:04:51;5.00;;;2.40;;
62861;SDS011;48953;53.110;5.592;2023-02-28T00:07:26;4.22;;;2.40;;
62861;SDS011;48953;53.110;5.592;2023-02-28T00:10:05;6.43;;;1.92;;
62861;SDS011;48953;53.110;5.592;2023-02-28T00:15:01;8.55;;;2.40;;
62861;SDS011;48953;53.110;5.592;2023-02-28T00:17:27;8.93;;;2.65;;
62861;SDS011;48953;53.110;5.592;2023-02-28T00:19:53;8.07;;;2.70;;
62861;SDS011;48953;53.110;5.592;2023-02-28T00:22:20;7.80;;;2.50;;
62861;SDS011;48953;53.110;5.592;2023-02-28T00:24:46;6.47;;;2.80;;
62861;SDS011;48953;53.110;5.592;2023-02-28T00:27:13;6.15;;;2.67;;
62861;SDS011;48953;53.110;5.592;2023-02-28T00:29:39;4.60;;;2.83;;
62861;SDS011;48953;53.110;5.592;2023-02-28T00:32:05;9.93;;;3.08;;
62861;SDS011;48953;53.110;5.592;2023-02-28T00:34:31;8.43;;;3.03;;
62861;SDS011;48953;53.110;5.592;2023-02-28T00:37:03;7.93;;;3.25;;
62861;SDS011;48953;53.110;5.592;2023-02-28T00:39:29;5.35;;;2.80;;
62861;SDS011;48953;53.110;5.592;2023-02-28T00:41:55;8.18;;;2.50;;
62861;SDS011;48953;53.110;5.592;2023-02-28T00:44:21;8.70;;;3.33;;
62861;SDS011;48953;53.110;5.592;2023-02-28T00:46:47;8.70;;;3.72;;
62861;SDS011;48953;53.110;5.592;2023-02-28T00:49:13;12.57;;;3.47;;
62861;SDS011;48953;53.110;5.592;2023-02-28T00:51:39;4.57;;;3.10;;
62861;SDS011;48953;53.110;5.592;2023-02-28T00:54:05;9.38;;;3.28;;
62861;SDS011;48953;53.110;5.592;2023-02-28T00:56:31;8.68;;;2.88;;
62861;SDS011;48953;53.110;5.592;2023-02-28T00:58:57;5.97;;;2.88;;
62861;SDS011;48953;53.110;5.592;2023-02-28T01:01:23;10.88;;;2.60;;
62861;SDS011;48953;53.110;5.592;2023-02-28T01:03:49;6.20;;;2.95;;
62861;SDS011;48953;53.110;5.592;2023-02-28T01:06:15;6.70;;;2.65;;
62861;SDS011;48953;53.110;5.592;2023-02-28T01:08:41;8.93;;;2.67;;
62861;SDS011;48953;53.110;5.592;2023-02-28T01:11:08;5.47;;;2.40;;
62861;SDS011;48953;53.110;5.592;2023-02-28T01:13:35;9.55;;;3.28;;
62861;SDS011;48953;53.110;5.592;2023-02-28T01:16:00;10.05;;;2.90;;
62861;SDS011;48953;53.110;5.592;2023-02-28T01:18:26;7.68;;;2.45;;
62861;SDS011;48953;53.110;5.592;2023-02-28T01:20:53;6.15;;;2.50;;
62861;SDS011;48953;53.110;5.592;2023-02-28T01:23:20;4.70;;;2.50;;
62861;SDS011;48953;53.110;5.592;2023-02-28T01:25:47;6.68;;;2.20;;
62861;SDS011;48953;53.110;5.592;2023-02-28T01:28:13;9.60;;;3.10;;
62861;SDS011;48953;53.110;5.592;2023-02-28T01:30:39;11.10;;;3.70;;
62861;SDS011;48953;53.110;5.592;2023-02-28T01:33:05;14.10;;;4.18;;
62861;SDS011;48953;53.110;5.592;2023-02-28T01:35:34;7.95;;;2.97;;
62861;SDS011;48953;53.110;5.592;2023-02-28T01:38:04;8.20;;;2.80;;
62861;SDS011;48953;53.110;5.592;2023-02-28T01:40:30;6.88;;;2.97;;
62861;SDS011;48953;53.110;5.592;2023-02-28T01:42:56;7.10;;;2.95;;
62861;SDS011;48953;53.110;5.592;2023-02-28T01:47:49;7.07;;;2.40;;
62861;SDS011;48953;53.110;5.592;2023-02-28T01:50:20;9.90;;;3.50;;
62861;SDS011;48953;53.110;5.592;2023-02-28T01:52:48;9.93;;;5.22;;
62861;SDS011;48953;53.110;5.592;2023-02-28T01:55:16;11.52;;;4.15;;
62861;SDS011;48953;53.110;5.592;2023-02-28T01:57:51;7.57;;;3.65;;
62861;SDS011;48953;53.110;5.592;2023-02-28T02:00:19;7.05;;;3.60;;
62861;SDS011;48953;53.110;5.592;2023-02-28T02:02:47;6.43;;;3.15;;
62861;SDS011;48953;53.110;5.592;2023-02-28T02:05:16;12.77;;;3.05;;
62861;SDS011;48953;53.110;5.592;2023-02-28T02:07:43;5.25;;;2.80;;
62861;SDS011;48953;53.110;5.592;2023-02-28T02:10:14;7.20;;;2.78;;
62861;SDS011;48953;53.110;5.592;2023-02-28T02:15:16;7.25;;;2.30;;
62861;SDS011;48953;53.110;5.592;2023-02-28T02:17:46;10.80;;;2.63;;
62861;SDS011;48953;53.110;5.592;2023-02-28T02:23:41;7.57;;;2.75;;
62861;SDS011;48953;53.110;5.592;2023-02-28T02:33:19;7.85;;;2.90;;
62861;SDS011;48953;53.110;5.592;2023-02-28T02:38:27;6.50;;;2.50;;
62861;SDS011;48953;53.110;5.592;2023-02-28T02:43:39;7.22;;;2.58;;
62861;SDS011;48953;53.110;5.592;2023-02-28T02:46:17;9.98;;;3.40;;
62861;SDS011;48953;53.110;5.592;2023-02-28T02:48:44;6.18;;;3.05;;
62861;SDS011;48953;53.110;5.592;2023-02-28T02:51:13;11.68;;;2.90;;
62861;SDS011;48953;53.110;5.592;2023-02-28T02:53:54;7.07;;;3.47;;
62861;SDS011;48953;53.110;5.592;2023-02-28T02:56:23;5.30;;;2.30;;
62861;SDS011;48953;53.110;5.592;2023-02-28T02:58:49;5.20;;;2.30;;
62861;SDS011;48953;53.110;5.592;2023-02-28T03:01:20;4.75;;;2.38;;
62861;SDS011;48953;53.110;5.592;2023-02-28T03:06:29;8.43;;;1.80;;
62861;SDS011;48953;53.110;5.592;2023-02-28T03:08:55;7.60;;;2.67;;
62861;SDS011;48953;53.110;5.592;2023-02-28T03:11:21;5.68;;;2.17;;
62861;SDS011;48953;53.110;5.592;2023-02-28T03:21:43;5.82;;;2.30;;
62861;SDS011;48953;53.110;5.592;2023-02-28T03:24:18;4.28;;;1.65;;
62861;SDS011;48953;53.110;5.592;2023-02-28T03:26:49;3.60;;;1.70;;
62861;SDS011;48953;53.110;5.592;2023-02-28T03:31:47;10.27;;;2.38;;
62861;SDS011;48953;53.110;5.592;2023-02-28T03:34:24;6.32;;;1.83;;
62861;SDS011;48953;53.110;5.592;2023-02-28T03:36:55;11.65;;;2.78;;
62861;SDS011;48953;53.110;5.592;2023-02-28T03:39:24;5.78;;;2.47;;
62861;SDS011;48953;53.110;5.592;2023-02-28T03:41:54;7.90;;;2.53;;
62861;SDS011;48953;53.110;5.592;2023-02-28T03:44:25;7.53;;;3.10;;
62861;SDS011;48953;53.110;5.592;2023-02-28T03:50:01;9.23;;;2.50;;
62861;SDS011;48953;53.110;5.592;2023-02-28T03:52:31;6.10;;;2.55;;
62861;SDS011;48953;53.110;5.592;2023-02-28T03:54:59;5.10;;;2.10;;
62861;SDS011;48953;53.110;5.592;2023-02-28T03:59:57;5.95;;;2.38;;
62861;SDS011;48953;53.110;5.592;2023-02-28T04:02:25;4.78;;;2.95;;
62861;SDS011;48953;53.110;5.592;2023-02-28T04:04:51;3.38;;;1.83;;
62861;SDS011;48953;53.110;5.592;2023-02-28T04:07:18;5.00;;;1.90;;
62861;SDS011;48953;53.110;5.592;2023-02-28T04:09:44;5.35;;;2.10;;
62861;SDS011;48953;53.110;5.592;2023-02-28T04:12:10;4.65;;;2.20;;
62861;SDS011;48953;53.110;5.592;2023-02-28T04:14:36;4.28;;;2.05;;
62861;SDS011;48953;53.110;5.592;2023-02-28T04:17:02;4.93;;;2.00;;
62861;SDS011;48953;53.110;5.592;2023-02-28T04:19:28;3.15;;;1.95;;
62861;SDS011;48953;53.110;5.592;2023-02-28T04:21:54;8.77;;;1.83;;
62861;SDS011;48953;53.110;5.592;2023-02-28T04:24:21;5.68;;;1.90;;
62861;SDS011;48953;53.110;5.592;2023-02-28T04:26:48;2.53;;;1.83;;
62861;SDS011;48953;53.110;5.592;2023-02-28T04:31:57;4.45;;;2.10;;
62861;SDS011;48953;53.110;5.592;2023-02-28T04:34:24;2.78;;;1.38;;
62861;SDS011;48953;53.110;5.592;2023-02-28T04:36:50;3.22;;;1.30;;
62861;SDS011;48953;53.110;5.592;2023-02-28T04:39:19;4.90;;;1.52;;
62861;SDS011;48953;53.110;5.592;2023-02-28T04:41:45;6.05;;;1.85;;
62861;SDS011;48953;53.110;5.592;2023-02-28T04:44:11;5.72;;;1.60;;
62861;SDS011;48953;53.110;5.592;2023-02-28T04:46:37;5.28;;;1.90;;
62861;SDS011;48953;53.110;5.592;2023-02-28T04:49:03;4.55;;;1.38;;
62861;SDS011;48953;53.110;5.592;2023-02-28T04:51:29;6.65;;;1.60;;
62861;SDS011;48953;53.110;5.592;2023-02-28T04:53:56;6.45;;;1.55;;
62861;SDS011;48953;53.110;5.592;2023-02-28T04:56:22;5.13;;;1.42;;
62861;SDS011;48953;53.110;5.592;2023-02-28T04:58:48;6.57;;;1.40;;
62861;SDS011;48953;53.110;5.592;2023-02-28T05:03:42;2.40;;;1.00;;
62861;SDS011;48953;53.110;5.592;2023-02-28T05:06:08;5.13;;;1.10;;
62861;SDS011;48953;53.110;5.592;2023-02-28T05:08:34;4.63;;;1.15;;
62861;SDS011;48953;53.110;5.592;2023-02-28T05:11:00;5.70;;;0.93;;
62861;SDS011;48953;53.110;5.592;2023-02-28T05:13:38;3.80;;;1.38;;
62861;SDS011;48953;53.110;5.592;2023-02-28T05:16:04;4.60;;;1.20;;
62861;SDS011;48953;53.110;5.592;2023-02-28T05:18:30;8.45;;;1.27;;
62861;SDS011;48953;53.110;5.592;2023-02-28T05:20:56;1.35;;;1.00;;
62861;SDS011;48953;53.110;5.592;2023-02-28T05:23:22;5.65;;;1.20;;
62861;SDS011;48953;53.110;5.592;2023-02-28T05:25:48;2.08;;;0.75;;
62861;SDS011;48953;53.110;5.592;2023-02-28T05:28:14;3.35;;;1.08;;
62861;SDS011;48953;53.110;5.592;2023-02-28T05:30:40;9.38;;;1.52;;
62861;SDS011;48953;53.110;5.592;2023-02-28T05:33:06;6.05;;;1.02;;
62861;SDS011;48953;53.110;5.592;2023-02-28T05:35:37;2.78;;;1.10;;
62861;SDS011;48953;53.110;5.592;2023-02-28T05:38:03;2.78;;;1.02;;
62861;SDS011;48953;53.110;5.592;2023-02-28T05:40:29;3.42;;;0.93;;
62861;SDS011;48953;53.110;5.592;2023-02-28T05:42:55;4.53;;;1.25;;
62861;SDS011;48953;53.110;5.592;2023-02-28T05:45:21;5.97;;;1.30;;
62861;SDS011;48953;53.110;5.592;2023-02-28T05:47:47;3.08;;;1.05;;
62861;SDS011;48953;53.110;5.592;2023-02-28T05:50:13;6.90;;;1.50;;
62861;SDS011;48953;53.110;5.592;2023-02-28T05:52:39;5.53;;;1.88;;
62861;SDS011;48953;53.110;5.592;2023-02-28T05:55:05;5.00;;;1.17;;
62861;SDS011;48953;53.110;5.592;2023-02-28T05:57:32;3.22;;;1.40;;
62861;SDS011;48953;53.110;5.592;2023-02-28T06:00:00;5.78;;;1.40;;
62861;SDS011;48953;53.110;5.592;2023-02-28T06:02:26;5.65;;;1.42;;
62861;SDS011;48953;53.110;5.592;2023-02-28T06:04:53;5.05;;;1.25;;
62861;SDS011;48953;53.110;5.592;2023-02-28T06:07:19;3.72;;;1.15;;
62861;SDS011;48953;53.110;5.592;2023-02-28T06:09:47;3.17;;;1.13;;
62861;SDS011;48953;53.110;5.592;2023-02-28T06:12:13;8.63;;;1.88;;
62861;SDS011;48953;53.110;5.592;2023-02-28T06:14:39;4.47;;;1.50;;
62861;SDS011;48953;53.110;5.592;2023-02-28T06:17:05;5.63;;;1.33;;
62861;SDS011;48953;53.110;5.592;2023-02-28T06:19:31;8.05;;;1.50;;
62861;SDS011;48953;53.110;5.592;2023-02-28T06:21:59;3.22;;;1.38;;
62861;SDS011;48953;53.110;5.592;2023-02-28T06:24:25;9.35;;;1.88;;
62861;SDS011;48953;53.110;5.592;2023-02-28T06:26:53;3.72;;;1.77;;
62861;SDS011;48953;53.110;5.592;2023-02-28T06:29:19;7.72;;;2.25;;
62861;SDS011;48953;53.110;5.592;2023-02-28T06:31:45;3.05;;;2.20;;
62861;SDS011;48953;53.110;5.592;2023-02-28T06:34:12;9.10;;;3.20;;
62861;SDS011;48953;53.110;5.592;2023-02-28T06:36:38;7.78;;;4.55;;
62861;SDS011;48953;53.110;5.592;2023-02-28T06:39:07;6.45;;;4.68;;
62861;SDS011;48953;53.110;5.592;2023-02-28T06:41:34;8.60;;;5.13;;
62861;SDS011;48953;53.110;5.592;2023-02-28T06:44:03;7.05;;;4.95;;
62861;SDS011;48953;53.110;5.592;2023-02-28T06:46:30;6.78;;;4.75;;
62861;SDS011;48953;53.110;5.592;2023-02-28T06:48:56;7.07;;;5.13;;
62861;SDS011;48953;53.110;5.592;2023-02-28T06:51:22;6.80;;;4.78;;
62861;SDS011;48953;53.110;5.592;2023-02-28T06:53:49;7.45;;;4.47;;
62861;SDS011;48953;53.110;5.592;2023-02-28T06:56:16;7.78;;;4.53;;
62861;SDS011;48953;53.110;5.592;2023-02-28T06:58:45;9.70;;;5.10;;
62861;SDS011;48953;53.110;5.592;2023-02-28T07:01:27;6.45;;;4.50;;
62861;SDS011;48953;53.110;5.592;2023-02-28T07:03:59;9.00;;;5.65;;
62861;SDS011;48953;53.110;5.592;2023-02-28T07:06:25;9.20;;;5.22;;
62861;SDS011;48953;53.110;5.592;2023-02-28T07:08:52;8.88;;;4.88;;
62861;SDS011;48953;53.110;5.592;2023-02-28T07:11:18;6.38;;;4.90;;
62861;SDS011;48953;53.110;5.592;2023-02-28T07:13:44;9.02;;;5.03;;
62861;SDS011;48953;53.110;5.592;2023-02-28T07:16:12;7.97;;;5.43;;
62861;SDS011;48953;53.110;5.592;2023-02-28T07:18:38;9.52;;;6.07;;
62861;SDS011;48953;53.110;5.592;2023-02-28T07:21:05;10.45;;;6.25;;
62861;SDS011;48953;53.110;5.592;2023-02-28T07:23:38;12.32;;;6.53;;
62861;SDS011;48953;53.110;5.592;2023-02-28T07:26:05;31.77;;;7.20;;
62861;SDS011;48953;53.110;5.592;2023-02-28T07:28:31;9.10;;;6.63;;
62861;SDS011;48953;53.110;5.592;2023-02-28T07:31:02;9.30;;;6.30;;
62861;SDS011;48953;53.110;5.592;2023-02-28T07:33:28;11.93;;;7.10;;
62861;SDS011;48953;53.110;5.592;2023-02-28T07:35:59;9.73;;;6.70;;
62861;SDS011;48953;53.110;5.592;2023-02-28T07:38:26;10.07;;;7.10;;
62861;SDS011;48953;53.110;5.592;2023-02-28T07:40:52;11.55;;;6.95;;
62861;SDS011;48953;53.110;5.592;2023-02-28T07:43:18;9.00;;;6.53;;
62861;SDS011;48953;53.110;5.592;2023-02-28T07:45:43;9.93;;;6.97;;
62861;SDS011;48953;53.110;5.592;2023-02-28T07:48:09;10.52;;;6.85;;
62861;SDS011;48953;53.110;5.592;2023-02-28T07:50:36;10.07;;;7.10;;
62861;SDS011;48953;53.110;5.592;2023-02-28T07:53:01;10.02;;;6.85;;
62861;SDS011;48953;53.110;5.592;2023-02-28T07:55:27;9.35;;;6.97;;
62861;SDS011;48953;53.110;5.592;2023-02-28T07:57:54;9.93;;;7.47;;
62861;SDS011;48953;53.110;5.592;2023-02-28T08:00:20;8.15;;;6.20;;
62861;SDS011;48953;53.110;5.592;2023-02-28T08:02:46;8.95;;;6.72;;
62861;SDS011;48953;53.110;5.592;2023-02-28T08:05:18;8.90;;;6.35;;
62861;SDS011;48953;53.110;5.592;2023-02-28T08:07:45;9.98;;;6.80;;
62861;SDS011;48953;53.110;5.592;2023-02-28T08:10:12;10.13;;;7.28;;
62861;SDS011;48953;53.110;5.592;2023-02-28T08:12:38;9.95;;;6.35;;
62861;SDS011;48953;53.110;5.592;2023-02-28T08:15:04;10.65;;;6.93;;
62861;SDS011;48953;53.110;5.592;2023-02-28T08:17:30;10.23;;;7.30;;
62861;SDS011;48953;53.110;5.592;2023-02-28T08:19:56;11.35;;;7.70;;
62861;SDS011;48953;53.110;5.592;2023-02-28T08:22:22;12.07;;;7.90;;
62861;SDS011;48953;53.110;5.592;2023-02-28T08:24:48;10.02;;;6.93;;
62861;SDS011;48953;53.110;5.592;2023-02-28T08:27:14;13.45;;;7.88;;
62861;SDS011;48953;53.110;5.592;2023-02-28T08:29:40;10.93;;;7.50;;
62861;SDS011;48953;53.110;5.592;2023-02-28T08:32:06;14.18;;;8.32;;
62861;SDS011;48953;53.110;5.592;2023-02-28T08:34:32;13.45;;;8.57;;
62861;SDS011;48953;53.110;5.592;2023-02-28T08:36:58;15.10;;;8.80;;
62861;SDS011;48953;53.110;5.592;2023-02-28T08:39:25;13.52;;;8.85;;
62861;SDS011;48953;53.110;5.592;2023-02-28T08:41:51;15.35;;;8.93;;
62861;SDS011;48953;53.110;5.592;2023-02-28T08:44:17;13.07;;;8.13;;
62861;SDS011;48953;53.110;5.592;2023-02-28T08:46:43;15.02;;;8.63;;
62861;SDS011;48953;53.110;5.592;2023-02-28T08:49:09;16.15;;;8.70;;
62861;SDS011;48953;53.110;5.592;2023-02-28T08:51:36;12.65;;;7.93;;
62861;SDS011;48953;53.110;5.592;2023-02-28T08:54:02;12.55;;;7.78;;
62861;SDS011;48953;53.110;5.592;2023-02-28T08:56:28;14.15;;;8.35;;
62861;SDS011;48953;53.110;5.592;2023-02-28T08:58:54;13.10;;;8.63;;
62861;SDS011;48953;53.110;5.592;2023-02-28T09:01:22;12.27;;;7.72;;
62861;SDS011;48953;53.110;5.592;2023-02-28T09:03:49;11.98;;;8.15;;
62861;SDS011;48953;53.110;5.592;2023-02-28T09:06:16;14.20;;;8.60;;
62861;SDS011;48953;53.110;5.592;2023-02-28T09:08:42;13.80;;;8.07;;
62861;SDS011;48953;53.110;5.592;2023-02-28T09:11:09;13.30;;;8.02;;
62861;SDS011;48953;53.110;5.592;2023-02-28T09:13:35;13.57;;;8.07;;
62861;SDS011;48953;53.110;5.592;2023-02-28T09:16:02;11.55;;;7.53;;
62861;SDS011;48953;53.110;5.592;2023-02-28T09:18:28;12.02;;;8.05;;
62861;SDS011;48953;53.110;5.592;2023-02-28T09:20:54;12.93;;;7.85;;
62861;SDS011;48953;53.110;5.592;2023-02-28T09:23:22;13.68;;;8.30;;
62861;SDS011;48953;53.110;5.592;2023-02-28T09:25:49;11.18;;;6.93;;
62861;SDS011;48953;53.110;5.592;2023-02-28T09:28:15;12.20;;;7.53;;
62861;SDS011;48953;53.110;5.592;2023-02-28T09:30:42;13.30;;;7.65;;
62861;SDS011;48953;53.110;5.592;2023-02-28T09:33:09;11.95;;;7.80;;
62861;SDS011;48953;53.110;5.592;2023-02-28T09:35:35;11.60;;;8.02;;
62861;SDS011;48953;53.110;5.592;2023-02-28T09:38:02;9.02;;;6.75;;
62861;SDS011;48953;53.110;5.592;2023-02-28T09:40:28;10.98;;;7.68;;
62861;SDS011;48953;53.110;5.592;2023-02-28T09:42:55;11.10;;;7.47;;
62861;SDS011;48953;53.110;5.592;2023-02-28T09:47:48;10.35;;;7.28;;
62861;SDS011;48953;53.110;5.592;2023-02-28T09:52:45;9.80;;;6.95;;
62861;SDS011;48953;53.110;5.592;2023-02-28T09:57:41;10.32;;;6.65;;
62861;SDS011;48953;53.110;5.592;2023-02-28T10:00:13;10.52;;;6.43;;
62861;SDS011;48953;53.110;5.592;2023-02-28T10:05:17;9.38;;;6.78;;
62861;SDS011;48953;53.110;5.592;2023-02-28T10:07:58;10.32;;;7.38;;
62861;SDS011;48953;53.110;5.592;2023-02-28T10:12:53;10.30;;;6.57;;
62861;SDS011;48953;53.110;5.592;2023-02-28T10:15:21;8.85;;;6.70;;
62861;SDS011;48953;53.110;5.592;2023-02-28T10:17:57;9.02;;;6.53;;
62861;SDS011;48953;53.110;5.592;2023-02-28T10:20:24;9.07;;;6.30;;
62861;SDS011;48953;53.110;5.592;2023-02-28T10:23:08;10.00;;;7.25;;
62861;SDS011;48953;53.110;5.592;2023-02-28T10:25:35;9.57;;;6.60;;
62861;SDS011;48953;53.110;5.592;2023-02-28T10:28:07;9.18;;;6.40;;
62861;SDS011;48953;53.110;5.592;2023-02-28T10:30:36;8.35;;;5.82;;
62861;SDS011;48953;53.110;5.592;2023-02-28T10:33:02;8.05;;;5.75;;
62861;SDS011;48953;53.110;5.592;2023-02-28T10:35:28;8.43;;;5.63;;
62861;SDS011;48953;53.110;5.592;2023-02-28T10:37:58;6.85;;;5.18;;
62861;SDS011;48953;53.110;5.592;2023-02-28T10:45:53;7.63;;;5.40;;
62861;SDS011;48953;53.110;5.592;2023-02-28T10:55:43;6.60;;;5.32;;
62861;SDS011;48953;53.110;5.592;2023-02-28T10:58:20;6.63;;;4.70;;
62861;SDS011;48953;53.110;5.592;2023-02-28T11:00:47;5.60;;;4.55;;
62861;SDS011;48953;53.110;5.592;2023-02-28T11:03:23;6.15;;;4.25;;
62861;SDS011;48953;53.110;5.592;2023-02-28T11:05:49;6.53;;;4.22;;
62861;SDS011;48953;53.110;5.592;2023-02-28T11:08:16;4.97;;;4.28;;
62861;SDS011;48953;53.110;5.592;2023-02-28T11:10:46;5.30;;;4.05;;
62861;SDS011;48953;53.110;5.592;2023-02-28T11:13:16;6.60;;;4.65;;
62861;SDS011;48953;53.110;5.592;2023-02-28T11:15:45;7.18;;;3.65;;
62861;SDS011;48953;53.110;5.592;2023-02-28T11:18:19;4.72;;;3.40;;
62861;SDS011;48953;53.110;5.592;2023-02-28T11:20:50;4.57;;;3.10;;
62861;SDS011;48953;53.110;5.592;2023-02-28T11:23:17;5.05;;;3.20;;
62861;SDS011;48953;53.110;5.592;2023-02-28T11:25:49;5.18;;;3.65;;
62861;SDS011;48953;53.110;5.592;2023-02-28T11:34:10;5.30;;;3.30;;
62861;SDS011;48953;53.110;5.592;2023-02-28T11:36:17;6.25;;;3.90;;
62861;SDS011;48953;53.110;5.592;2023-02-28T11:38:43;5.28;;;3.67;;
62861;SDS011;48953;53.110;5.592;2023-02-28T11:46:48;4.63;;;3.08;;
62861;SDS011;48953;53.110;5.592;2023-02-28T11:51:54;3.78;;;2.60;;
62861;SDS011;48953;53.110;5.592;2023-02-28T11:54:33;4.32;;;2.40;;
62861;SDS011;48953;53.110;5.592;2023-02-28T11:57:16;4.07;;;2.90;;
62861;SDS011;48953;53.110;5.592;2023-02-28T11:59:51;4.57;;;2.80;;
62861;SDS011;48953;53.110;5.592;2023-02-28T12:05:16;4.13;;;2.92;;
62861;SDS011;48953;53.110;5.592;2023-02-28T12:10:26;5.03;;;2.90;;
62861;SDS011;48953;53.110;5.592;2023-02-28T12:20:36;4.65;;;2.83;;
62861;SDS011;48953;53.110;5.592;2023-02-28T12:28:25;3.50;;;2.80;;
62861;SDS011;48953;53.110;5.592;2023-02-28T12:33:22;3.80;;;2.72;;
62861;SDS011;48953;53.110;5.592;2023-02-28T12:43:09;4.97;;;3.17;;
62861;SDS011;48953;53.110;5.592;2023-02-28T12:45:40;4.38;;;2.90;;
62861;SDS011;48953;53.110;5.592;2023-02-28T12:48:08;3.58;;;2.75;;
62861;SDS011;48953;53.110;5.592;2023-02-28T12:50:35;3.78;;;2.90;;
62861;SDS011;48953;53.110;5.592;2023-02-28T12:53:10;3.00;;;2.70;;
62861;SDS011;48953;53.110;5.592;2023-02-28T12:55:42;5.45;;;3.35;;
62861;SDS011;48953;53.110;5.592;2023-02-28T12:58:20;5.95;;;3.00;;
62861;SDS011;48953;53.110;5.592;2023-02-28T13:08:34;5.22;;;3.05;;
62861;SDS011;48953;53.110;5.592;2023-02-28T13:11:22;7.10;;;3.10;;
62861;SDS011;48953;53.110;5.592;2023-02-28T13:13:48;4.88;;;3.30;;
62861;SDS011;48953;53.110;5.592;2023-02-28T13:16:22;3.85;;;3.03;;
62861;SDS011;48953;53.110;5.592;2023-02-28T13:18:48;5.32;;;3.30;;
62861;SDS011;48953;53.110;5.592;2023-02-28T13:21:27;3.80;;;2.92;;
62861;SDS011;48953;53.110;5.592;2023-02-28T13:24:03;3.90;;;3.03;;
62861;SDS011;48953;53.110;5.592;2023-02-28T13:31:29;4.00;;;2.70;;
62861;SDS011;48953;53.110;5.592;2023-02-28T13:36:28;4.07;;;2.92;;
62861;SDS011;48953;53.110;5.592;2023-02-28T13:38:55;3.38;;;2.65;;
62861;SDS011;48953;53.110;5.592;2023-02-28T13:46:25;4.55;;;3.17;;
62861;SDS011;48953;53.110;5.592;2023-02-28T13:48:52;3.42;;;3.10;;
62861;SDS011;48953;53.110;5.592;2023-02-28T14:05:37;6.20;;;3.28;;
62861;SDS011;48953;53.110;5.592;2023-02-28T14:08:21;3.88;;;3.00;;
62861;SDS011;48953;53.110;5.592;2023-02-28T14:10:52;4.25;;;3.08;;
62861;SDS011;48953;53.110;5.592;2023-02-28T14:13:44;5.05;;;3.60;;
62861;SDS011;48953;53.110;5.592;2023-02-28T14:16:13;4.60;;;3.25;;
62861;SDS011;48953;53.110;5.592;2023-02-28T14:18:56;4.35;;;3.45;;
62861;SDS011;48953;53.110;5.592;2023-02-28T14:21:24;4.53;;;3.47;;
62861;SDS011;48953;53.110;5.592;2023-02-28T14:26:46;4.10;;;3.22;;
62861;SDS011;48953;53.110;5.592;2023-02-28T14:31:51;4.00;;;3.30;;
62861;SDS011;48953;53.110;5.592;2023-02-28T14:36:50;4.60;;;3.63;;
62861;SDS011;48953;53.110;5.592;2023-02-28T14:42:27;5.05;;;3.70;;
62861;SDS011;48953;53.110;5.592;2023-02-28T14:44:54;5.28;;;4.00;;
62861;SDS011;48953;53.110;5.592;2023-02-28T14:47:21;8.32;;;3.88;;
62861;SDS011;48953;53.110;5.592;2023-02-28T14:49:49;4.43;;;3.90;;
62861;SDS011;48953;53.110;5.592;2023-02-28T14:54:41;5.50;;;3.75;;
62861;SDS011;48953;53.110;5.592;2023-02-28T14:57:20;4.32;;;3.42;;
62861;SDS011;48953;53.110;5.592;2023-02-28T14:59:56;4.82;;;3.85;;
62861;SDS011;48953;53.110;5.592;2023-02-28T15:02:23;6.30;;;3.70;;
62861;SDS011;48953;53.110;5.592;2023-02-28T15:04:57;5.28;;;3.70;;
62861;SDS011;48953;53.110;5.592;2023-02-28T15:07:23;5.07;;;3.63;;
62861;SDS011;48953;53.110;5.592;2023-02-28T15:12:34;5.80;;;4.10;;
62861;SDS011;48953;53.110;5.592;2023-02-28T15:15:00;6.47;;;4.00;;
62861;SDS011;48953;53.110;5.592;2023-02-28T15:17:26;5.43;;;4.13;;
62861;SDS011;48953;53.110;5.592;2023-02-28T15:25:06;4.85;;;3.10;;
62861;SDS011;48953;53.110;5.592;2023-02-28T15:27:33;6.90;;;4.45;;
62861;SDS011;48953;53.110;5.592;2023-02-28T15:30:04;5.05;;;3.40;;
62861;SDS011;48953;53.110;5.592;2023-02-28T15:32:31;5.47;;;3.40;;
62861;SDS011;48953;53.110;5.592;2023-02-28T15:34:58;6.72;;;3.70;;
62861;SDS011;48953;53.110;5.592;2023-02-28T15:37:26;6.10;;;4.03;;
62861;SDS011;48953;53.110;5.592;2023-02-28T15:39:53;4.82;;;4.15;;
62861;SDS011;48953;53.110;5.592;2023-02-28T15:42:21;5.72;;;3.95;;
62861;SDS011;48953;53.110;5.592;2023-02-28T15:44:47;4.90;;;3.42;;
62861;SDS011;48953;53.110;5.592;2023-02-28T15:52:18;3.50;;;2.17;;
62861;SDS011;48953;53.110;5.592;2023-02-28T15:54:45;4.72;;;3.40;;
62861;SDS011;48953;53.110;5.592;2023-02-28T15:57:22;3.35;;;2.58;;
62861;SDS011;48953;53.110;5.592;2023-02-28T15:59:53;4.13;;;3.25;;
62861;SDS011;48953;53.110;5.592;2023-02-28T16:02:21;5.95;;;3.80;;
62861;SDS011;48953;53.110;5.592;2023-02-28T16:04:56;3.88;;;2.35;;
62861;SDS011;48953;53.110;5.592;2023-02-28T16:07:22;7.07;;;3.78;;
62861;SDS011;48953;53.110;5.592;2023-02-28T16:09:49;7.10;;;3.40;;
62861;SDS011;48953;53.110;5.592;2023-02-28T16:12:15;5.00;;;3.53;;
62861;SDS011;48953;53.110;5.592;2023-02-28T16:14:41;5.07;;;3.22;;
62861;SDS011;48953;53.110;5.592;2023-02-28T16:17:20;4.90;;;3.28;;
62861;SDS011;48953;53.110;5.592;2023-02-28T16:19:47;6.47;;;4.07;;
62861;SDS011;48953;53.110;5.592;2023-02-28T16:22:13;5.22;;;3.58;;
62861;SDS011;48953;53.110;5.592;2023-02-28T16:24:39;7.50;;;3.78;;
62861;SDS011;48953;53.110;5.592;2023-02-28T16:27:05;6.32;;;4.63;;
62861;SDS011;48953;53.110;5.592;2023-02-28T16:29:33;6.45;;;3.78;;
62861;SDS011;48953;53.110;5.592;2023-02-28T16:32:00;7.50;;;4.22;;
62861;SDS011;48953;53.110;5.592;2023-02-28T16:34:26;7.55;;;4.80;;
62861;SDS011;48953;53.110;5.592;2023-02-28T16:36:52;5.82;;;4.13;;
62861;SDS011;48953;53.110;5.592;2023-02-28T16:39:20;8.07;;;4.63;;
62861;SDS011;48953;53.110;5.592;2023-02-28T16:41:47;8.65;;;5.10;;
62861;SDS011;48953;53.110;5.592;2023-02-28T16:44:35;6.40;;;5.07;;
62861;SDS011;48953;53.110;5.592;2023-02-28T16:47:01;5.75;;;4.20;;
62861;SDS011;48953;53.110;5.592;2023-02-28T16:49:35;9.57;;;5.00;;
62861;SDS011;48953;53.110;5.592;2023-02-28T16:52:01;6.22;;;4.43;;
62861;SDS011;48953;53.110;5.592;2023-02-28T16:54:27;7.68;;;4.70;;
62861;SDS011;48953;53.110;5.592;2023-02-28T16:56:53;6.95;;;5.13;;
62861;SDS011;48953;53.110;5.592;2023-02-28T16:59:21;8.93;;;4.88;;
62861;SDS011;48953;53.110;5.592;2023-02-28T17:01:49;7.00;;;4.80;;
62861;SDS011;48953;53.110;5.592;2023-02-28T17:04:15;7.63;;;4.93;;
62861;SDS011;48953;53.110;5.592;2023-02-28T17:06:41;7.72;;;4.85;;
62861;SDS011;48953;53.110;5.592;2023-02-28T17:09:08;6.63;;;4.40;;
62861;SDS011;48953;53.110;5.592;2023-02-28T17:11:40;6.95;;;4.50;;
62861;SDS011;48953;53.110;5.592;2023-02-28T17:14:06;6.53;;;4.10;;
62861;SDS011;48953;53.110;5.592;2023-02-28T17:16:33;8.32;;;4.55;;
62861;SDS011;48953;53.110;5.592;2023-02-28T17:19:00;7.57;;;4.43;;
62861;SDS011;48953;53.110;5.592;2023-02-28T17:21:26;7.43;;;4.53;;
62861;SDS011;48953;53.110;5.592;2023-02-28T17:23:52;7.43;;;5.00;;
62861;SDS011;48953;53.110;5.592;2023-02-28T17:26:20;6.22;;;4.82;;
62861;SDS011;48953;53.110;5.592;2023-02-28T17:28:46;8.38;;;5.18;;
62861;SDS011;48953;53.110;5.592;2023-02-28T17:31:14;9.25;;;5.40;;
62861;SDS011;48953;53.110;5.592;2023-02-28T17:33:40;5.85;;;4.38;;
62861;SDS011;48953;53.110;5.592;2023-02-28T17:36:08;9.43;;;5.00;;
62861;SDS011;48953;53.110;5.592;2023-02-28T17:38:36;8.20;;;5.30;;
62861;SDS011;48953;53.110;5.592;2023-02-28T17:41:02;7.47;;;4.97;;
62861;SDS011;48953;53.110;5.592;2023-02-28T17:43:28;7.07;;;4.72;;
62861;SDS011;48953;53.110;5.592;2023-02-28T17:45:54;7.50;;;4.85;;
62861;SDS011;48953;53.110;5.592;2023-02-28T17:48:20;11.10;;;5.53;;